createdAt,value
2018-07-10T00:04:39.702Z,4.17
2018-07-10T00:11:57.978Z,4.07
2018-07-10T00:17:01.813Z,4.23
2018-07-10T00:22:05.608Z,3.17
2018-07-10T00:27:09.426Z,4.27
2018-07-10T00:32:13.229Z,3.17
2018-07-10T00:37:17.037Z,4.90
2018-07-10T00:42:20.842Z,5.90
2018-07-10T00:47:24.872Z,3.87
2018-07-10T00:52:32.547Z,3.83
2018-07-10T00:57:36.339Z,6.40
2018-07-10T01:02:40.398Z,3.63
2018-07-10T01:07:44.188Z,4.10
2018-07-10T01:12:47.981Z,6.17
2018-07-10T01:17:52.316Z,5.17
2018-07-10T01:22:56.348Z,5.73
2018-07-10T01:28:00.144Z,6.67
2018-07-10T01:33:03.962Z,5.93
2018-07-10T01:38:07.838Z,7.33
2018-07-10T01:43:11.648Z,4.93
2018-07-10T01:48:15.676Z,7.67
2018-07-10T01:53:19.695Z,6.97
2018-07-10T01:58:23.740Z,3.47
2018-07-10T02:03:28.186Z,3.37
2018-07-10T02:08:31.996Z,5.33
2018-07-10T02:13:36.042Z,5.23
2018-07-10T02:18:40.200Z,5.42
2018-07-10T02:23:45.311Z,7.50
2018-07-10T02:28:50.038Z,5.43
2018-07-10T02:33:54.159Z,8.03
2018-07-10T02:38:59.780Z,6.97
2018-07-10T02:44:04.947Z,4.87
2018-07-10T02:49:15.433Z,8.57
2018-07-10T02:54:21.850Z,8.10
2018-07-10T02:59:35.520Z,4.07
2018-07-10T03:04:41.298Z,6.90
2018-07-10T03:09:45.996Z,4.23
2018-07-10T03:14:49.778Z,4.93
2018-07-10T03:19:53.816Z,4.70
2018-07-10T03:24:57.597Z,4.97
2018-07-10T03:30:02.098Z,6.53
2018-07-10T03:35:06.173Z,6.43
2018-07-10T03:40:10.610Z,6.70
2018-07-10T03:45:14.402Z,6.13
2018-07-10T03:50:18.435Z,4.53
2018-07-10T03:55:22.218Z,6.07
2018-07-10T04:00:26.573Z,8.00
2018-07-10T04:05:30.599Z,4.60
2018-07-10T04:10:35.581Z,6.07
2018-07-10T04:15:40.182Z,6.13
2018-07-10T04:20:57.953Z,5.40
2018-07-10T04:26:03.013Z,8.77
2018-07-10T04:31:15.486Z,7.40
2018-07-10T04:36:20.209Z,7.43
2018-07-10T04:41:28.592Z,4.57
2018-07-10T04:46:39.344Z,4.10
2018-07-10T04:51:50.189Z,3.70
2018-07-10T04:57:03.518Z,4.70
2018-07-10T05:02:07.731Z,5.37
2018-07-10T05:07:12.076Z,4.97
2018-07-10T05:12:15.883Z,3.47
2018-07-10T05:17:19.699Z,4.37
2018-07-10T05:22:23.493Z,3.87
2018-07-10T05:27:27.293Z,3.13
2018-07-10T05:32:31.921Z,3.07
2018-07-10T05:37:37.181Z,4.37
2018-07-10T05:42:46.904Z,3.23
2018-07-10T05:47:53.467Z,5.62
2018-07-10T05:52:57.246Z,4.57
2018-07-10T05:58:01.982Z,6.43
2018-07-10T06:03:06.012Z,4.20
2018-07-10T06:08:11.063Z,2.80
2018-07-10T06:13:15.473Z,3.53
2018-07-10T06:18:19.512Z,3.37
2018-07-10T06:23:25.770Z,2.70
2018-07-10T06:28:29.582Z,3.50
2018-07-10T06:33:33.374Z,4.22
2018-07-10T06:38:41.302Z,4.03
2018-07-10T06:43:52.369Z,3.13
2018-07-10T06:48:58.833Z,4.37
2018-07-10T06:54:03.420Z,4.97
2018-07-10T06:59:07.209Z,3.83
2018-07-10T07:04:10.998Z,6.20
2018-07-10T07:09:14.781Z,2.27
2018-07-10T07:14:18.634Z,2.77
2018-07-10T07:19:22.657Z,3.00
2018-07-10T07:24:26.437Z,3.30
2018-07-10T07:29:30.229Z,5.17
2018-07-10T07:34:34.038Z,2.47
2018-07-10T07:39:37.812Z,5.20
2018-07-10T07:44:41.959Z,2.97
2018-07-10T07:49:45.978Z,2.83
2018-07-10T07:54:50.632Z,2.57
2018-07-10T07:59:54.670Z,3.70
2018-07-10T08:04:58.472Z,2.80
2018-07-10T08:10:02.757Z,3.50
2018-07-10T08:15:06.534Z,5.63
2018-07-10T08:20:10.318Z,2.80
2018-07-10T08:25:14.092Z,6.15
2018-07-10T08:30:17.941Z,5.30
2018-07-10T08:35:21.766Z,6.23
2018-07-10T08:40:25.598Z,4.53
2018-07-10T08:45:29.397Z,4.97
2018-07-10T08:50:33.445Z,3.10
2018-07-10T08:55:37.451Z,7.57
2018-07-10T09:00:41.269Z,3.57
2018-07-10T09:05:45.045Z,5.47
2018-07-10T09:10:48.838Z,4.53
2018-07-10T09:15:52.617Z,7.10
2018-07-10T09:20:56.393Z,7.13
2018-07-10T09:26:01.159Z,6.97
2018-07-10T09:31:05.751Z,4.80
2018-07-10T09:36:09.775Z,4.70
2018-07-10T09:41:13.805Z,4.33
2018-07-10T09:46:17.833Z,7.57
2018-07-10T09:51:21.875Z,7.23
2018-07-10T09:56:25.666Z,3.13
2018-07-10T10:01:33.676Z,4.67
2018-07-10T10:06:37.458Z,5.13
2018-07-10T10:11:41.253Z,2.80
2018-07-10T10:16:45.055Z,3.33
2018-07-10T10:21:48.875Z,4.30
2018-07-10T10:26:52.650Z,2.97
2018-07-10T10:31:56.523Z,3.47
2018-07-10T10:37:00.575Z,4.00
2018-07-10T10:42:04.610Z,2.37
2018-07-10T10:47:08.710Z,5.73
2018-07-10T10:52:12.509Z,2.43
2018-07-10T10:57:16.765Z,4.50
2018-07-10T11:02:21.452Z,3.83
2018-07-10T11:07:25.203Z,5.60
2018-07-10T11:12:30.942Z,6.53
2018-07-10T11:17:40.946Z,7.20
2018-07-10T11:22:49.697Z,2.37
2018-07-10T11:28:03.241Z,5.20
2018-07-10T11:33:08.173Z,5.83
2018-07-10T11:38:13.375Z,4.10
2018-07-10T11:43:17.415Z,5.47
2018-07-10T11:48:21.241Z,3.23
2018-07-10T11:53:25.483Z,8.10
2018-07-10T11:58:29.386Z,3.50
2018-07-10T12:03:37.690Z,2.80
2018-07-10T12:08:41.525Z,9.87
2018-07-10T12:13:45.491Z,3.63
2018-07-10T12:18:49.282Z,3.40
2018-07-10T12:23:53.399Z,3.10
2018-07-10T12:28:57.193Z,3.63
2018-07-10T12:34:01.009Z,3.43
2018-07-10T12:39:05.478Z,3.00
2018-07-10T12:44:09.275Z,4.37
2018-07-10T12:49:13.055Z,4.30
2018-07-10T12:54:17.173Z,2.50
2018-07-10T12:59:21.229Z,4.73
2018-07-10T13:04:25.299Z,4.67
2018-07-10T13:09:29.072Z,6.03
2018-07-10T13:14:33.328Z,5.80
2018-07-10T13:19:38.526Z,8.80
2018-07-10T13:24:42.347Z,6.50
2018-07-10T13:29:46.126Z,6.93
2018-07-10T13:34:50.114Z,5.00
2018-07-10T13:39:54.282Z,8.97
2018-07-10T13:44:58.067Z,14.73
2018-07-10T13:50:02.098Z,5.47
2018-07-10T13:55:05.906Z,10.70
2018-07-10T14:00:09.717Z,8.43
2018-07-10T14:05:13.749Z,10.13
2018-07-10T14:10:17.550Z,11.22
2018-07-10T14:15:21.341Z,7.65
2018-07-10T14:20:25.778Z,8.87
2018-07-10T14:25:29.806Z,5.60
2018-07-10T14:30:33.642Z,10.70
2018-07-10T14:35:37.683Z,5.80
2018-07-10T14:40:46.296Z,6.27
2018-07-10T14:45:54.115Z,8.67
2018-07-10T14:50:58.927Z,8.67
2018-07-10T14:56:02.781Z,11.30
2018-07-10T15:01:06.569Z,7.60
2018-07-10T15:06:10.639Z,7.27
2018-07-10T15:11:14.672Z,7.43
2018-07-10T15:16:18.569Z,8.57
2018-07-10T15:21:23.679Z,9.87
2018-07-10T15:26:27.466Z,11.50
2018-07-10T15:31:31.310Z,8.20
2018-07-10T15:36:35.183Z,11.37
2018-07-10T15:41:38.965Z,12.37
2018-07-10T15:46:42.762Z,9.27
2018-07-10T15:51:46.806Z,10.27
2018-07-10T15:56:50.878Z,9.23
2018-07-10T16:01:54.672Z,9.13
2018-07-10T16:06:58.466Z,10.80
2018-07-10T16:12:04.994Z,7.67
2018-07-10T16:17:23.054Z,7.23
2018-07-10T16:22:27.799Z,6.50
2018-07-10T16:27:34.357Z,12.17
2018-07-10T16:32:40.857Z,12.53
2018-07-10T16:37:44.994Z,8.57
2018-07-10T16:42:54.178Z,10.80
2018-07-10T16:48:20.999Z,11.13
2018-07-10T16:53:30.974Z,9.63
2018-07-10T16:58:38.554Z,7.10
2018-07-10T17:03:42.382Z,9.00
2018-07-10T17:08:46.186Z,8.73
2018-07-10T17:13:49.973Z,9.73
2018-07-10T17:18:53.774Z,5.87
2018-07-10T17:24:00.643Z,7.03
2018-07-10T17:29:09.015Z,6.30
2018-07-10T17:34:12.781Z,6.30
2018-07-10T17:39:17.475Z,7.70
2018-07-10T17:44:21.486Z,7.67
2018-07-10T17:49:25.303Z,10.13
2018-07-10T17:54:29.095Z,10.90
2018-07-10T17:59:32.981Z,9.85
2018-07-10T18:04:36.849Z,11.67
2018-07-10T18:09:40.718Z,10.90
2018-07-10T18:14:44.782Z,12.10
2018-07-10T18:19:49.220Z,13.10
2018-07-10T18:24:53.058Z,16.77
2018-07-10T18:29:56.857Z,13.77
2018-07-10T18:35:00.681Z,15.33
2018-07-10T18:40:04.707Z,12.37
2018-07-10T18:45:08.753Z,12.77
2018-07-10T18:50:12.792Z,17.10
2018-07-10T18:55:16.598Z,13.75
2018-07-10T19:00:29.347Z,13.00
2018-07-10T19:05:36.617Z,16.17
2018-07-10T19:10:41.649Z,15.43
2018-07-10T19:15:46.344Z,11.27
2018-07-10T19:20:57.318Z,17.03
2018-07-10T19:26:01.102Z,17.97
2018-07-10T19:31:12.730Z,13.73
2018-07-10T19:36:16.550Z,18.10
2018-07-10T19:41:21.041Z,12.70
2018-07-10T19:46:24.892Z,12.85
2018-07-10T19:51:29.204Z,15.23
2018-07-10T19:56:33.001Z,14.40
2018-07-10T20:01:46.198Z,16.77
2018-07-10T20:07:08.558Z,15.23
2018-07-10T20:12:13.665Z,15.97
2018-07-10T20:17:18.365Z,12.30
2018-07-10T20:22:42.100Z,11.83
2018-07-10T20:27:51.269Z,14.17
2018-07-10T20:33:12.873Z,10.50
2018-07-10T20:38:17.309Z,10.30
2018-07-10T20:43:21.637Z,11.90
2018-07-10T20:48:40.267Z,14.67
2018-07-10T20:53:51.236Z,10.03
2018-07-10T20:59:05.819Z,11.60
2018-07-10T21:04:34.971Z,14.40
2018-07-10T21:09:53.583Z,11.00
2018-07-10T21:15:05.600Z,13.60
2018-07-10T21:20:16.714Z,10.18
2018-07-10T21:25:25.341Z,10.20
2018-07-10T21:30:46.389Z,12.33
2018-07-10T21:35:58.140Z,10.80
2018-07-10T21:41:16.993Z,12.87
2018-07-10T21:46:37.108Z,11.57
2018-07-10T21:51:46.038Z,14.47
2018-07-10T21:56:49.886Z,10.27
2018-07-10T22:01:59.639Z,10.60
2018-07-10T22:07:05.322Z,12.07
2018-07-10T22:12:10.975Z,13.00
2018-07-10T22:17:16.514Z,14.43
2018-07-10T22:22:22.294Z,11.73
2018-07-10T22:27:26.539Z,12.50
2018-07-10T22:32:37.479Z,14.00
2018-07-10T22:37:41.281Z,14.17
2018-07-10T22:42:45.157Z,14.77
2018-07-10T22:47:49.566Z,17.60
2018-07-10T22:53:00.802Z,16.10
2018-07-10T22:58:06.392Z,19.97
2018-07-10T23:03:19.543Z,13.43
2018-07-10T23:08:35.697Z,13.90
2018-07-10T23:13:41.308Z,15.53
2018-07-10T23:18:46.579Z,15.33
2018-07-10T23:23:50.729Z,16.70
2018-07-10T23:28:55.130Z,16.57
2018-07-10T23:34:17.211Z,17.00
2018-07-10T23:39:24.331Z,14.97
2018-07-10T23:44:31.709Z,18.53
2018-07-10T23:49:35.954Z,17.00
2018-07-10T23:54:39.742Z,17.23
2018-07-10T23:59:43.547Z,16.83
